sensor_id;sensor_type;location;lat;lon;timestamp;temperature;humidity
13330;DHT22;6734;48.638;8.896;2023-04-03T00:03:40;4.20;99.90
13330;DHT22;6734;48.638;8.896;2023-04-03T00:08:34;4.30;99.90
13330;DHT22;6734;48.638;8.896;2023-04-03T00:13:26;4.50;99.90
13330;DHT22;6734;48.638;8.896;2023-04-03T00:15:52;4.80;99.90
13330;DHT22;6734;48.638;8.896;2023-04-03T00:18:18;4.60;99.90
13330;DHT22;6734;48.638;8.896;2023-04-03T00:23:10;4.40;99.90
13330;DHT22;6734;48.638;8.896;2023-04-03T00:32:54;4.50;99.90
13330;DHT22;6734;48.638;8.896;2023-04-03T00:45:33;4.20;99.90
13330;DHT22;6734;48.638;8.896;2023-04-03T00:48:00;4.30;99.90
13330;DHT22;6734;48.638;8.896;2023-04-03T00:50:28;4.20;99.90
13330;DHT22;6734;48.638;8.896;2023-04-03T01:00:17;4.60;99.90
13330;DHT22;6734;48.638;8.896;2023-04-03T01:02:44;4.30;99.90
13330;DHT22;6734;48.638;8.896;2023-04-03T01:10:09;4.30;99.90
13330;DHT22;6734;48.638;8.896;2023-04-03T01:25:31;4.30;99.90
13330;DHT22;6734;48.638;8.896;2023-04-03T01:30:28;4.50;99.90
13330;DHT22;6734;48.638;8.896;2023-04-03T01:35:22;4.60;99.90
13330;DHT22;6734;48.638;8.896;2023-04-03T01:37:48;4.40;99.90
13330;DHT22;6734;48.638;8.896;2023-04-03T01:42:39;4.20;99.90
13330;DHT22;6734;48.638;8.896;2023-04-03T01:47:31;4.40;99.90
13330;DHT22;6734;48.638;8.896;2023-04-03T01:54:48;4.10;99.90
13330;DHT22;6734;48.638;8.896;2023-04-03T01:59:40;4.00;99.90
13330;DHT22;6734;48.638;8.896;2023-04-03T02:02:06;4.00;99.90
13330;DHT22;6734;48.638;8.896;2023-04-03T02:04:32;4.40;99.90
13330;DHT22;6734;48.638;8.896;2023-04-03T02:06:58;4.10;99.90
13330;DHT22;6734;48.638;8.896;2023-04-03T02:09:23;4.30;99.90
13330;DHT22;6734;48.638;8.896;2023-04-03T02:11:49;3.70;99.90
13330;DHT22;6734;48.638;8.896;2023-04-03T02:16:41;3.70;99.90
13330;DHT22;6734;48.638;8.896;2023-04-03T02:19:06;4.00;99.90
13330;DHT22;6734;48.638;8.896;2023-04-03T02:23:58;4.30;99.90
13330;DHT22;6734;48.638;8.896;2023-04-03T02:26:24;4.30;99.90
13330;DHT22;6734;48.638;8.896;2023-04-03T02:33:42;4.30;99.90
13330;DHT22;6734;48.638;8.896;2023-04-03T02:38:34;4.30;99.90
13330;DHT22;6734;48.638;8.896;2023-04-03T02:43:31;4.00;99.90
13330;DHT22;6734;48.638;8.896;2023-04-03T02:45:56;4.20;99.90
13330;DHT22;6734;48.638;8.896;2023-04-03T02:53:14;4.10;99.90
13330;DHT22;6734;48.638;8.896;2023-04-03T02:58:06;3.90;99.90
13330;DHT22;6734;48.638;8.896;2023-04-03T03:10:17;3.50;99.90
13330;DHT22;6734;48.638;8.896;2023-04-03T03:17:35;3.80;99.90
13330;DHT22;6734;48.638;8.896;2023-04-03T03:20:02;3.80;99.90
13330;DHT22;6734;48.638;8.896;2023-04-03T03:22:28;4.00;99.90
13330;DHT22;6734;48.638;8.896;2023-04-03T03:24:53;3.40;99.90
13330;DHT22;6734;48.638;8.896;2023-04-03T03:32:12;4.20;99.90
13330;DHT22;6734;48.638;8.896;2023-04-03T03:34:38;4.20;99.90
13330;DHT22;6734;48.638;8.896;2023-04-03T03:37:03;4.00;99.90
13330;DHT22;6734;48.638;8.896;2023-04-03T03:41:55;4.00;99.90
13330;DHT22;6734;48.638;8.896;2023-04-03T03:44:21;3.90;99.90
13330;DHT22;6734;48.638;8.896;2023-04-03T03:46:47;3.90;99.90
13330;DHT22;6734;48.638;8.896;2023-04-03T03:51:39;3.90;99.90
13330;DHT22;6734;48.638;8.896;2023-04-03T03:58:57;3.70;99.90
13330;DHT22;6734;48.638;8.896;2023-04-03T04:01:23;4.10;99.90
13330;DHT22;6734;48.638;8.896;2023-04-03T04:03:49;4.10;89.70
13330;DHT22;6734;48.638;8.896;2023-04-03T04:06:15;3.80;1.00
13330;DHT22;6734;48.638;8.896;2023-04-03T04:13:34;4.10;99.90
13330;DHT22;6734;48.638;8.896;2023-04-03T04:16:00;4.20;90.30
13330;DHT22;6734;48.638;8.896;2023-04-03T04:18:26;4.10;99.90
13330;DHT22;6734;48.638;8.896;2023-04-03T04:20:52;3.90;99.90
13330;DHT22;6734;48.638;8.896;2023-04-03T04:25:48;4.20;92.70
13330;DHT22;6734;48.638;8.896;2023-04-03T04:28:14;4.00;1.00
13330;DHT22;6734;48.638;8.896;2023-04-03T04:40:25;4.40;1.00
13330;DHT22;6734;48.638;8.896;2023-04-03T04:52:35;4.00;43.90
13330;DHT22;6734;48.638;8.896;2023-04-03T04:57:26;3.90;99.90
13330;DHT22;6734;48.638;8.896;2023-04-03T05:04:44;3.70;1.00
13330;DHT22;6734;48.638;8.896;2023-04-03T05:07:10;3.60;1.00
13330;DHT22;6734;48.638;8.896;2023-04-03T05:12:01;3.70;1.00
13330;DHT22;6734;48.638;8.896;2023-04-03T05:16:54;3.80;1.00
13330;DHT22;6734;48.638;8.896;2023-04-03T05:26:39;3.80;99.90
13330;DHT22;6734;48.638;8.896;2023-04-03T05:29:04;4.00;1.00
13330;DHT22;6734;48.638;8.896;2023-04-03T05:31:30;3.80;1.00
13330;DHT22;6734;48.638;8.896;2023-04-03T05:33:56;3.90;1.00
13330;DHT22;6734;48.638;8.896;2023-04-03T05:36:22;4.30;1.00
13330;DHT22;6734;48.638;8.896;2023-04-03T05:41:14;4.10;1.00
13330;DHT22;6734;48.638;8.896;2023-04-03T05:43:40;3.80;1.00
13330;DHT22;6734;48.638;8.896;2023-04-03T05:46:17;3.90;1.00
13330;DHT22;6734;48.638;8.896;2023-04-03T05:56:07;4.00;99.90
13330;DHT22;6734;48.638;8.896;2023-04-03T06:03:25;4.60;99.90
13330;DHT22;6734;48.638;8.896;2023-04-03T06:08:16;4.10;99.90
13330;DHT22;6734;48.638;8.896;2023-04-03T06:10:42;4.10;99.90
13330;DHT22;6734;48.638;8.896;2023-04-03T06:18:00;4.10;32.00
13330;DHT22;6734;48.638;8.896;2023-04-03T06:20:25;4.30;1.00
13330;DHT22;6734;48.638;8.896;2023-04-03T06:25:17;4.50;99.90
13330;DHT22;6734;48.638;8.896;2023-04-03T06:32:37;4.90;1.00
13330;DHT22;6734;48.638;8.896;2023-04-03T06:35:04;4.90;1.00
13330;DHT22;6734;48.638;8.896;2023-04-03T06:44:49;4.40;1.00
13330;DHT22;6734;48.638;8.896;2023-04-03T06:52:09;5.30;1.00
13330;DHT22;6734;48.638;8.896;2023-04-03T07:01:53;5.50;99.90
13330;DHT22;6734;48.638;8.896;2023-04-03T07:04:19;5.30;1.00
13330;DHT22;6734;48.638;8.896;2023-04-03T07:09:14;4.80;99.90
13330;DHT22;6734;48.638;8.896;2023-04-03T07:21:25;6.40;99.90
13330;DHT22;6734;48.638;8.896;2023-04-03T07:26:17;6.00;99.90
13330;DHT22;6734;48.638;8.896;2023-04-03T07:31:13;5.20;99.90
13330;DHT22;6734;48.638;8.896;2023-04-03T07:33:39;4.90;1.00
13330;DHT22;6734;48.638;8.896;2023-04-03T07:36:06;5.20;1.00
13330;DHT22;6734;48.638;8.896;2023-04-03T07:38:33;5.50;99.90
13330;DHT22;6734;48.638;8.896;2023-04-03T07:43:24;5.70;1.00
13330;DHT22;6734;48.638;8.896;2023-04-03T07:50:44;5.40;1.00
13330;DHT22;6734;48.638;8.896;2023-04-03T07:53:10;5.50;99.90
13330;DHT22;6734;48.638;8.896;2023-04-03T07:58:09;5.70;99.90
13330;DHT22;6734;48.638;8.896;2023-04-03T08:10:19;5.70;1.00
13330;DHT22;6734;48.638;8.896;2023-04-03T08:12:48;5.90;1.00
13330;DHT22;6734;48.638;8.896;2023-04-03T08:15:14;6.00;99.90
13330;DHT22;6734;48.638;8.896;2023-04-03T08:20:06;6.20;1.00
13330;DHT22;6734;48.638;8.896;2023-04-03T08:24:59;6.20;1.00
13330;DHT22;6734;48.638;8.896;2023-04-03T08:27:25;6.00;1.00
13330;DHT22;6734;48.638;8.896;2023-04-03T08:29:51;5.90;99.90
13330;DHT22;6734;48.638;8.896;2023-04-03T08:32:17;6.10;1.00
13330;DHT22;6734;48.638;8.896;2023-04-03T08:39:36;6.00;1.00
13330;DHT22;6734;48.638;8.896;2023-04-03T08:54:50;6.00;1.00
13330;DHT22;6734;48.638;8.896;2023-04-03T09:02:32;6.10;99.90
13330;DHT22;6734;48.638;8.896;2023-04-03T09:10:03;6.10;50.40
13330;DHT22;6734;48.638;8.896;2023-04-03T09:25:42;5.50;99.90
13330;DHT22;6734;48.638;8.896;2023-04-03T09:40:37;5.90;99.90
13330;DHT22;6734;48.638;8.896;2023-04-03T09:43:22;6.00;99.90
13330;DHT22;6734;48.638;8.896;2023-04-03T09:45:49;6.00;99.90
13330;DHT22;6734;48.638;8.896;2023-04-03T10:01:00;6.30;99.90
13330;DHT22;6734;48.638;8.896;2023-04-03T10:11:15;6.10;1.00
13330;DHT22;6734;48.638;8.896;2023-04-03T10:16:53;5.70;99.90
13330;DHT22;6734;48.638;8.896;2023-04-03T10:22:20;5.90;99.90
13330;DHT22;6734;48.638;8.896;2023-04-03T10:27:26;5.90;99.90
13330;DHT22;6734;48.638;8.896;2023-04-03T10:32:42;6.30;99.90
13330;DHT22;6734;48.638;8.896;2023-04-03T10:37:59;6.10;99.90
13330;DHT22;6734;48.638;8.896;2023-04-03T10:56:15;6.70;99.90
13330;DHT22;6734;48.638;8.896;2023-04-03T10:58:50;6.70;99.90
13330;DHT22;6734;48.638;8.896;2023-04-03T11:01:45;6.90;99.90
13330;DHT22;6734;48.638;8.896;2023-04-03T11:04:09;6.80;99.90
13330;DHT22;6734;48.638;8.896;2023-04-03T11:09:22;6.60;99.90
13330;DHT22;6734;48.638;8.896;2023-04-03T11:14:35;6.70;99.90
13330;DHT22;6734;48.638;8.896;2023-04-03T11:17:15;6.90;99.90
13330;DHT22;6734;48.638;8.896;2023-04-03T11:22:48;7.40;99.90
13330;DHT22;6734;48.638;8.896;2023-04-03T11:36:11;7.70;99.90
13330;DHT22;6734;48.638;8.896;2023-04-03T11:43:41;7.60;99.90
13330;DHT22;6734;48.638;8.896;2023-04-03T11:51:01;7.10;99.90
13330;DHT22;6734;48.638;8.896;2023-04-03T11:53:32;7.00;99.90
13330;DHT22;6734;48.638;8.896;2023-04-03T12:01:48;6.40;99.90
13330;DHT22;6734;48.638;8.896;2023-04-03T12:04:16;6.20;99.90
13330;DHT22;6734;48.638;8.896;2023-04-03T12:09:32;6.60;99.90
13330;DHT22;6734;48.638;8.896;2023-04-03T12:12:00;6.70;99.90
13330;DHT22;6734;48.638;8.896;2023-04-03T12:24:33;6.40;99.90
13330;DHT22;6734;48.638;8.896;2023-04-03T12:27:32;6.50;99.90
13330;DHT22;6734;48.638;8.896;2023-04-03T12:48:57;7.60;99.90
13330;DHT22;6734;48.638;8.896;2023-04-03T12:56:29;6.90;99.90
13330;DHT22;6734;48.638;8.896;2023-04-03T13:08:56;6.90;99.90
13330;DHT22;6734;48.638;8.896;2023-04-03T13:11:25;6.90;99.90
13330;DHT22;6734;48.638;8.896;2023-04-03T13:23:47;7.10;99.90
13330;DHT22;6734;48.638;8.896;2023-04-03T13:26:17;7.40;99.90
13330;DHT22;6734;48.638;8.896;2023-04-03T13:33:52;8.30;99.90
13330;DHT22;6734;48.638;8.896;2023-04-03T13:48:49;7.10;99.90
13330;DHT22;6734;48.638;8.896;2023-04-03T13:56:21;7.30;99.90
13330;DHT22;6734;48.638;8.896;2023-04-03T14:01:46;7.90;99.90
13330;DHT22;6734;48.638;8.896;2023-04-03T14:06:49;7.50;99.90
13330;DHT22;6734;48.638;8.896;2023-04-03T14:09:17;7.50;99.90
13330;DHT22;6734;48.638;8.896;2023-04-03T14:11:43;7.50;99.90
13330;DHT22;6734;48.638;8.896;2023-04-03T14:14:26;7.70;99.90
13330;DHT22;6734;48.638;8.896;2023-04-03T14:21:55;7.20;99.90
13330;DHT22;6734;48.638;8.896;2023-04-03T14:26:50;6.90;99.90
13330;DHT22;6734;48.638;8.896;2023-04-03T14:29:19;6.70;99.90
13330;DHT22;6734;48.638;8.896;2023-04-03T14:36:39;6.80;99.90
13330;DHT22;6734;48.638;8.896;2023-04-03T14:48:52;7.00;99.90
13330;DHT22;6734;48.638;8.896;2023-04-03T14:51:18;7.20;99.90
13330;DHT22;6734;48.638;8.896;2023-04-03T14:53:44;7.00;99.90
13330;DHT22;6734;48.638;8.896;2023-04-03T14:56:21;7.20;99.90
13330;DHT22;6734;48.638;8.896;2023-04-03T15:01:16;7.10;99.90
13330;DHT22;6734;48.638;8.896;2023-04-03T15:03:42;6.80;99.90
13330;DHT22;6734;48.638;8.896;2023-04-03T15:06:13;6.70;99.90
13330;DHT22;6734;48.638;8.896;2023-04-03T15:08:39;6.70;99.90
13330;DHT22;6734;48.638;8.896;2023-04-03T15:11:06;6.50;99.90
13330;DHT22;6734;48.638;8.896;2023-04-03T15:15:58;6.40;99.90
13330;DHT22;6734;48.638;8.896;2023-04-03T15:18:26;6.60;99.90
13330;DHT22;6734;48.638;8.896;2023-04-03T15:20:53;6.50;99.90
13330;DHT22;6734;48.638;8.896;2023-04-03T15:23:19;6.50;99.90
13330;DHT22;6734;48.638;8.896;2023-04-03T15:28:39;6.50;99.90
13330;DHT22;6734;48.638;8.896;2023-04-03T15:33:31;6.80;99.90
13330;DHT22;6734;48.638;8.896;2023-04-03T15:38:23;7.80;99.90
13330;DHT22;6734;48.638;8.896;2023-04-03T15:40:48;9.10;99.90
13330;DHT22;6734;48.638;8.896;2023-04-03T15:43:15;10.10;99.90
13330;DHT22;6734;48.638;8.896;2023-04-03T15:48:08;12.10;99.90
13330;DHT22;6734;48.638;8.896;2023-04-03T15:55:29;7.80;99.90
13330;DHT22;6734;48.638;8.896;2023-04-03T15:57:56;7.70;99.90
13330;DHT22;6734;48.638;8.896;2023-04-03T16:00:22;7.20;99.90
13330;DHT22;6734;48.638;8.896;2023-04-03T16:02:51;7.00;99.90
13330;DHT22;6734;48.638;8.896;2023-04-03T16:05:18;7.10;99.90
13330;DHT22;6734;48.638;8.896;2023-04-03T16:10:12;6.90;99.90
13330;DHT22;6734;48.638;8.896;2023-04-03T16:12:38;7.00;99.90
13330;DHT22;6734;48.638;8.896;2023-04-03T16:15:04;7.00;99.90
13330;DHT22;6734;48.638;8.896;2023-04-03T16:17:32;6.70;99.90
13330;DHT22;6734;48.638;8.896;2023-04-03T16:19:58;6.90;99.90
13330;DHT22;6734;48.638;8.896;2023-04-03T16:22:25;7.00;99.90
13330;DHT22;6734;48.638;8.896;2023-04-03T16:29:45;6.80;99.90
13330;DHT22;6734;48.638;8.896;2023-04-03T16:32:11;6.60;99.90
13330;DHT22;6734;48.638;8.896;2023-04-03T16:37:03;6.50;99.90
13330;DHT22;6734;48.638;8.896;2023-04-03T16:39:28;6.40;99.90
13330;DHT22;6734;48.638;8.896;2023-04-03T16:41:54;6.30;99.90
13330;DHT22;6734;48.638;8.896;2023-04-03T16:46:46;6.40;99.90
13330;DHT22;6734;48.638;8.896;2023-04-03T16:49:12;6.30;99.90
13330;DHT22;6734;48.638;8.896;2023-04-03T16:51:37;6.40;99.90
13330;DHT22;6734;48.638;8.896;2023-04-03T16:56:29;6.90;99.90
13330;DHT22;6734;48.638;8.896;2023-04-03T17:03:48;6.70;99.90
13330;DHT22;6734;48.638;8.896;2023-04-03T17:08:47;6.50;99.90
13330;DHT22;6734;48.638;8.896;2023-04-03T17:11:14;6.40;99.90
13330;DHT22;6734;48.638;8.896;2023-04-03T17:13:40;6.10;99.90
13330;DHT22;6734;48.638;8.896;2023-04-03T17:16:09;6.00;99.90
13330;DHT22;6734;48.638;8.896;2023-04-03T17:18:36;5.90;99.90
13330;DHT22;6734;48.638;8.896;2023-04-03T17:21:02;5.80;99.90
13330;DHT22;6734;48.638;8.896;2023-04-03T17:25:55;5.70;99.90
13330;DHT22;6734;48.638;8.896;2023-04-03T17:33:20;5.60;99.90
13330;DHT22;6734;48.638;8.896;2023-04-03T17:35:46;5.60;99.90
13330;DHT22;6734;48.638;8.896;2023-04-03T17:40:37;5.60;99.90
13330;DHT22;6734;48.638;8.896;2023-04-03T17:43:03;5.60;99.90
13330;DHT22;6734;48.638;8.896;2023-04-03T17:47:54;5.80;99.90
13330;DHT22;6734;48.638;8.896;2023-04-03T17:50:20;5.70;99.90
13330;DHT22;6734;48.638;8.896;2023-04-03T17:57:39;5.40;99.90
13330;DHT22;6734;48.638;8.896;2023-04-03T18:00:06;5.30;99.90
13330;DHT22;6734;48.638;8.896;2023-04-03T18:02:31;5.20;99.90
13330;DHT22;6734;48.638;8.896;2023-04-03T18:04:57;5.20;99.90
13330;DHT22;6734;48.638;8.896;2023-04-03T18:09:50;5.10;99.90
13330;DHT22;6734;48.638;8.896;2023-04-03T18:12:17;5.10;99.90
13330;DHT22;6734;48.638;8.896;2023-04-03T18:17:10;5.50;99.90
13330;DHT22;6734;48.638;8.896;2023-04-03T18:24:31;5.20;99.90
13330;DHT22;6734;48.638;8.896;2023-04-03T18:27:01;5.60;99.90
13330;DHT22;6734;48.638;8.896;2023-04-03T18:31:57;5.30;99.90
13330;DHT22;6734;48.638;8.896;2023-04-03T18:41:43;5.10;99.90
13330;DHT22;6734;48.638;8.896;2023-04-03T18:44:13;5.00;99.90
13330;DHT22;6734;48.638;8.896;2023-04-03T18:49:07;4.70;99.90
13330;DHT22;6734;48.638;8.896;2023-04-03T18:53:59;4.60;99.90
13330;DHT22;6734;48.638;8.896;2023-04-03T18:56:25;4.60;99.90
13330;DHT22;6734;48.638;8.896;2023-04-03T19:06:09;4.40;99.90
13330;DHT22;6734;48.638;8.896;2023-04-03T19:20:49;4.00;99.90
13330;DHT22;6734;48.638;8.896;2023-04-03T19:23:14;4.00;99.90
13330;DHT22;6734;48.638;8.896;2023-04-03T19:28:07;4.20;99.90
13330;DHT22;6734;48.638;8.896;2023-04-03T19:37:50;4.30;99.90
13330;DHT22;6734;48.638;8.896;2023-04-03T19:45:11;4.50;99.90
13330;DHT22;6734;48.638;8.896;2023-04-03T19:54:57;4.30;99.90
13330;DHT22;6734;48.638;8.896;2023-04-03T19:57:23;4.40;99.90
13330;DHT22;6734;48.638;8.896;2023-04-03T19:59:48;4.10;99.90
13330;DHT22;6734;48.638;8.896;2023-04-03T20:04:41;4.00;99.90
13330;DHT22;6734;48.638;8.896;2023-04-03T20:11:58;3.90;99.90
13330;DHT22;6734;48.638;8.896;2023-04-03T20:16:51;3.90;99.90
13330;DHT22;6734;48.638;8.896;2023-04-03T20:34:02;3.40;99.90
13330;DHT22;6734;48.638;8.896;2023-04-03T20:38:55;3.40;99.90
13330;DHT22;6734;48.638;8.896;2023-04-03T20:41:21;3.30;99.90
13330;DHT22;6734;48.638;8.896;2023-04-03T20:48:43;3.10;99.90
13330;DHT22;6734;48.638;8.896;2023-04-03T20:53:40;3.30;99.90
13330;DHT22;6734;48.638;8.896;2023-04-03T20:56:05;3.10;99.90
13330;DHT22;6734;48.638;8.896;2023-04-03T20:58:35;3.10;99.90
13330;DHT22;6734;48.638;8.896;2023-04-03T21:19:44;2.60;99.90
13330;DHT22;6734;48.638;8.896;2023-04-03T21:24:37;2.70;99.90
13330;DHT22;6734;48.638;8.896;2023-04-03T21:27:03;2.60;99.90
13330;DHT22;6734;48.638;8.896;2023-04-03T21:29:29;2.60;99.90
13330;DHT22;6734;48.638;8.896;2023-04-03T21:36:50;2.40;99.90
13330;DHT22;6734;48.638;8.896;2023-04-03T21:39:17;2.40;99.90
13330;DHT22;6734;48.638;8.896;2023-04-03T21:46:35;2.20;99.90
13330;DHT22;6734;48.638;8.896;2023-04-03T21:51:27;1.80;99.90
13330;DHT22;6734;48.638;8.896;2023-04-03T21:58:50;1.60;99.90
13330;DHT22;6734;48.638;8.896;2023-04-03T22:03:43;1.40;99.90
13330;DHT22;6734;48.638;8.896;2023-04-03T22:06:14;1.40;99.90
13330;DHT22;6734;48.638;8.896;2023-04-03T22:13:37;1.30;99.90
13330;DHT22;6734;48.638;8.896;2023-04-03T22:16:04;1.40;99.90
13330;DHT22;6734;48.638;8.896;2023-04-03T22:18:30;1.30;99.90
13330;DHT22;6734;48.638;8.896;2023-04-03T22:23:22;1.40;99.90
13330;DHT22;6734;48.638;8.896;2023-04-03T22:28:33;1.30;99.90
13330;DHT22;6734;48.638;8.896;2023-04-03T22:31:00;1.20;99.90
13330;DHT22;6734;48.638;8.896;2023-04-03T22:48:12;0.90;99.90
13330;DHT22;6734;48.638;8.896;2023-04-03T22:53:05;0.80;99.90
13330;DHT22;6734;48.638;8.896;2023-04-03T23:00:22;0.70;99.90
13330;DHT22;6734;48.638;8.896;2023-04-03T23:02:48;0.60;99.90
13330;DHT22;6734;48.638;8.896;2023-04-03T23:07:40;0.70;99.90
13330;DHT22;6734;48.638;8.896;2023-04-03T23:10:06;0.60;99.90
13330;DHT22;6734;48.638;8.896;2023-04-03T23:12:40;0.70;99.90
13330;DHT22;6734;48.638;8.896;2023-04-03T23:17:36;0.60;99.90
13330;DHT22;6734;48.638;8.896;2023-04-03T23:24:55;0.60;99.90
13330;DHT22;6734;48.638;8.896;2023-04-03T23:29:46;0.50;99.90
13330;DHT22;6734;48.638;8.896;2023-04-03T23:34:39;0.70;99.90
13330;DHT22;6734;48.638;8.896;2023-04-03T23:41:58;0.40;99.90
13330;DHT22;6734;48.638;8.896;2023-04-03T23:44:23;0.30;99.90
13330;DHT22;6734;48.638;8.896;2023-04-03T23:49:15;0.50;99.90
